Time,TemperatureF,DewpointF,PressureIn,WindDirection,WindDirectionDegrees,WindSpeedMPH,WindSpeedGustMPH,Humidity,HourlyPrecipIn,Conditions,Clouds,dailyrainin,SoftwareType,DateUTC
2013-02-21 00:01:00,30.6,5.5,30.10,NE,34,0.0,5.0,34,15.16,,,99.99,Wunderground v.1.15,2013-02-21 05:01:00,
2013-02-21 00:06:00,30.7,6.9,30.10,NE,38,3.0,3.0,36,15.16,,,99.99,Wunderground v.1.15,2013-02-21 05:06:00,
2013-02-21 00:12:00,30.3,7.1,30.10,NE,55,6.0,7.0,37,14.40,,,99.99,Wunderground v.1.15,2013-02-21 05:12:00,
2013-02-21 00:17:00,30.0,6.8,30.10,ENE,61,7.0,7.0,37,15.16,,,99.99,Wunderground v.1.15,2013-02-21 05:17:00,
2013-02-21 00:22:00,30.1,6.9,30.09,NNE,21,3.0,9.0,37,14.40,,,99.99,Wunderground v.1.15,2013-02-21 05:22:00,
2013-02-21 00:27:00,30.4,6.0,30.09,North,0,2.0,5.0,35,14.40,,,99.99,Wunderground v.1.15,2013-02-21 05:27:00,
2013-02-21 00:33:00,30.9,5.1,30.09,North,8,0.0,5.0,33,14.40,,,99.99,Wunderground v.1.15,2013-02-21 05:33:00,
2013-02-21 00:38:00,31.2,6.0,30.09,NNE,18,0.0,2.0,34,14.40,,,99.99,Wunderground v.1.15,2013-02-21 05:38:00,
2013-02-21 00:43:00,31.0,7.1,30.09,NNE,18,0.0,2.0,36,15.16,,,99.99,Wunderground v.1.15,2013-02-21 05:43:00,
2013-02-21 00:48:00,30.6,8.0,30.09,NNE,18,0.0,0.0,38,14.40,,,99.99,Wunderground v.1.15,2013-02-21 05:48:00,
2013-02-21 00:53:00,30.1,8.1,30.09,NNE,18,0.0,0.0,39,14.40,,,99.99,Wunderground v.1.15,2013-02-21 05:53:00,
2013-02-21 00:59:00,29.8,7.8,30.09,NNE,18,0.0,0.0,39,15.16,,,99.99,Wunderground v.1.15,2013-02-21 05:59:00,
2013-02-21 01:07:00,29.5,8.1,30.10,NNE,18,0.0,0.0,40,15.16,,,-99.99,Wunderground v.1.15,2013-02-21 06:07:00,
2013-02-21 01:12:00,29.4,6.9,30.10,NNE,18,0.0,0.0,38,15.16,,,-99.99,Wunderground v.1.15,2013-02-21 06:12:00,
2013-02-21 01:17:00,29.5,7.5,30.10,NNE,18,0.0,0.0,39,15.16,,,-99.99,Wunderground v.1.15,2013-02-21 06:17:00,
2013-02-21 01:23:00,29.7,8.8,30.10,North,6,0.0,0.0,41,14.40,,,-99.99,Wunderground v.1.15,2013-02-21 06:23:00,
2013-02-21 01:29:00,29.7,8.3,30.10,North,6,0.0,0.0,40,14.40,,,-99.99,Wunderground v.1.15,2013-02-21 06:29:00,
2013-02-21 01:37:00,29.7,8.3,30.11,North,6,0.0,0.0,40,14.40,,,-99.99,Wunderground v.1.15,2013-02-21 06:37:00,
2013-02-21 01:43:00,29.5,8.1,30.11,ENE,62,0.0,1.0,40,14.40,,,-99.99,Wunderground v.1.15,2013-02-21 06:43:00,
2013-02-21 01:48:00,29.5,9.2,30.11,ENE,62,0.0,0.0,42,14.40,,,-99.99,Wunderground v.1.15,2013-02-21 06:48:00,
2013-02-21 01:53:00,29.3,9.5,30.11,NE,48,3.0,3.0,43,14.40,,,-99.99,Wunderground v.1.15,2013-02-21 06:53:00,
2013-02-21 01:58:00,29.3,10.1,30.11,NE,48,3.0,3.0,44,14.40,,,-99.99,Wunderground v.1.15,2013-02-21 06:58:00,
2013-02-21 02:03:00,29.1,10.4,30.11,NE,48,2.0,4.0,45,14.40,,,0.00,Wunderground v.1.15,2013-02-21 07:03:00,
2013-02-21 02:08:00,29.1,9.9,30.11,NE,48,0.0,2.0,44,15.16,,,1.19,Wunderground v.1.15,2013-02-21 07:08:00,
2013-02-21 02:13:00,29.1,9.9,30.11,NE,48,0.0,2.0,44,15.16,,,2.42,Wunderground v.1.15,2013-02-21 07:13:00,
2013-02-21 02:18:00,29.1,10.4,30.11,NE,48,0.0,0.0,45,15.16,,,3.73,Wunderground v.1.15,2013-02-21 07:18:00,
2013-02-21 02:23:00,29.1,10.4,30.11,NE,48,0.0,0.0,45,15.16,,,4.92,Wunderground v.1.15,2013-02-21 07:23:00,
2013-02-21 02:28:00,29.0,9.8,30.11,NE,48,0.0,0.0,44,15.16,,,6.08,Wunderground v.1.15,2013-02-21 07:28:00,
2013-02-21 02:36:00,29.3,9.5,30.10,North,4,2.0,2.0,43,15.16,,,7.98,Wunderground v.1.15,2013-02-21 07:36:00,
2013-02-21 02:41:00,29.4,10.1,30.10,NNE,23,3.0,3.0,44,15.16,,,9.21,Wunderground v.1.15,2013-02-21 07:41:00,
2013-02-21 02:47:00,29.3,10.6,30.10,NNE,23,0.0,1.0,45,15.16,,,10.32,Wunderground v.1.15,2013-02-21 07:47:00,
2013-02-21 02:52:00,29.3,9.5,30.10,NE,35,1.0,2.0,43,15.16,,,11.55,Wunderground v.1.15,2013-02-21 07:52:00,
2013-02-21 02:57:00,29.1,10.4,30.10,ENE,64,2.0,3.0,45,14.40,,,12.78,Wunderground v.1.15,2013-02-21 07:57:00,
2013-02-21 03:02:00,28.8,10.1,30.11,NE,38,0.0,3.0,45,14.40,,,14.09,Wunderground v.1.15,2013-02-21 08:02:00,
2013-02-21 03:07:00,28.5,11.7,30.11,NE,45,0.0,1.0,49,15.16,,,15.36,Wunderground v.1.15,2013-02-21 08:07:00,
2013-02-21 03:12:00,27.9,12.5,30.11,NE,54,3.0,3.0,52,15.16,,,16.51,Wunderground v.1.15,2013-02-21 08:12:00,
2013-02-21 03:18:00,27.5,12.2,30.12,NE,48,2.0,5.0,52,14.40,,,17.86,Wunderground v.1.15,2013-02-21 08:18:00,
2013-02-21 03:23:00,27.3,12.0,30.12,NE,42,6.0,6.0,52,15.16,,,19.01,Wunderground v.1.15,2013-02-21 08:23:00,
2013-02-21 03:28:00,27.8,10.2,30.12,NNE,25,3.0,6.0,47,15.16,,,20.28,Wunderground v.1.15,2013-02-21 08:28:00,
2013-02-21 03:33:00,28.4,10.2,30.12,NNE,20,4.0,7.0,46,15.16,,,21.47,Wunderground v.1.15,2013-02-21 08:33:00,
2013-02-21 03:39:00,28.8,10.1,30.12,NNE,13,0.0,6.0,45,14.40,,,22.78,Wunderground v.1.15,2013-02-21 08:39:00,
2013-02-21 03:44:00,29.0,9.3,30.12,WNW,285,0.0,2.0,43,14.40,,,23.97,Wunderground v.1.15,2013-02-21 08:44:00,
2013-02-21 03:49:00,28.8,11.6,30.11,ENE,58,0.0,4.0,48,15.16,,,25.32,Wunderground v.1.15,2013-02-21 08:49:00,
2013-02-21 03:56:00,28.7,9.5,30.11,ENE,58,0.0,0.0,44,15.16,,,26.83,Wunderground v.1.15,2013-02-21 08:56:00,
2013-02-21 04:01:00,28.7,10.5,30.11,ENE,58,0.0,0.0,46,15.16,,,28.06,Wunderground v.1.15,2013-02-21 09:01:00,
2013-02-21 04:06:00,28.7,10.0,30.11,ENE,58,0.0,1.0,45,15.16,,,29.29,Wunderground v.1.15,2013-02-21 09:06:00,
2013-02-21 04:11:00,28.8,9.6,30.11,NNE,24,3.0,3.0,44,14.40,,,30.52,Wunderground v.1.15,2013-02-21 09:11:00,
2013-02-21 04:17:00,29.1,9.4,30.11,NE,49,1.0,2.0,43,15.16,,,31.83,Wunderground v.1.15,2013-02-21 09:17:00,
2013-02-21 04:22:00,29.3,9.5,30.12,NE,49,1.0,2.0,43,14.40,,,33.06,Wunderground v.1.15,2013-02-21 09:22:00,
2013-02-21 04:27:00,29.3,9.5,30.12,NE,49,0.0,1.0,43,14.40,,,34.25,Wunderground v.1.15,2013-02-21 09:27:00,
2013-02-21 04:32:00,29.3,9.5,30.12,NNE,28,0.0,4.0,43,15.16,,,35.48,Wunderground v.1.15,2013-02-21 09:32:00,
2013-02-21 04:37:00,29.1,9.4,30.12,NNE,28,0.0,1.0,43,14.40,,,36.67,Wunderground v.1.15,2013-02-21 09:37:00,
2013-02-21 04:42:00,29.1,9.4,30.12,NNE,28,0.0,1.0,43,14.40,,,37.90,Wunderground v.1.15,2013-02-21 09:42:00,
2013-02-21 04:47:00,29.0,9.3,30.12,NNE,30,0.0,0.0,43,15.16,,,39.13,Wunderground v.1.15,2013-02-21 09:47:00,
2013-02-21 04:52:00,28.8,10.6,30.12,NNE,30,0.0,0.0,46,15.16,,,40.33,Wunderground v.1.15,2013-02-21 09:52:00,
2013-02-21 04:58:00,28.7,9.5,30.12,NNE,28,0.0,0.0,44,15.16,,,41.56,Wunderground v.1.15,2013-02-21 09:58:00,
2013-02-21 05:03:00,28.5,10.3,30.12,NNE,28,0.0,0.0,46,14.40,,,42.75,Wunderground v.1.15,2013-02-21 10:03:00,
2013-02-21 05:08:00,28.5,9.8,30.12,NNE,28,0.0,0.0,45,15.16,,,43.94,Wunderground v.1.15,2013-02-21 10:08:00,
2013-02-21 05:13:00,28.5,9.3,30.12,NNE,28,0.0,0.0,44,14.40,,,45.21,Wunderground v.1.15,2013-02-21 10:13:00,
2013-02-21 05:18:00,28.4,10.2,30.13,NNE,30,0.0,0.0,46,15.16,,,46.44,Wunderground v.1.15,2013-02-21 10:18:00,
2013-02-21 05:24:00,28.4,9.2,30.13,NNE,30,0.0,0.0,44,14.40,,,47.79,Wunderground v.1.15,2013-02-21 10:24:00,
2013-02-21 05:29:00,28.4,9.2,30.13,NNE,28,0.0,0.0,44,14.40,,,49.02,Wunderground v.1.15,2013-02-21 10:29:00,
2013-02-21 05:36:00,28.5,9.3,30.12,NNE,30,0.0,0.0,44,15.16,,,50.64,Wunderground v.1.15,2013-02-21 10:36:00,
2013-02-21 05:41:00,28.5,11.3,30.12,NNE,30,0.0,0.0,48,14.40,,,51.95,Wunderground v.1.15,2013-02-21 10:41:00,
2013-02-21 05:46:00,28.2,11.0,30.12,NNE,32,0.0,0.0,48,15.16,,,53.18,Wunderground v.1.15,2013-02-21 10:46:00,
2013-02-21 05:52:00,28.1,10.4,30.13,NNE,31,0.0,0.0,47,15.16,,,54.53,Wunderground v.1.15,2013-02-21 10:52:00,
2013-02-21 05:57:00,28.1,10.9,30.13,WSW,258,0.0,0.0,48,15.16,,,55.68,Wunderground v.1.15,2013-02-21 10:57:00,
2013-02-21 06:02:00,28.1,10.4,30.14,West,260,0.0,0.0,47,14.40,,,56.91,Wunderground v.1.15,2013-02-21 11:02:00,
2013-02-21 06:07:00,27.9,10.2,30.14,West,260,0.0,0.0,47,14.40,,,58.11,Wunderground v.1.15,2013-02-21 11:07:00,
2013-02-21 06:12:00,27.9,10.7,30.14,West,260,0.0,0.0,48,15.16,,,59.34,Wunderground v.1.15,2013-02-21 11:12:00,
2013-02-21 06:17:00,27.8,12.4,30.15,WNW,285,0.0,0.0,52,14.40,,,60.53,Wunderground v.1.15,2013-02-21 11:17:00,
2013-02-21 06:22:00,27.3,12.8,30.15,WNW,298,0.0,0.0,54,15.16,,,61.76,Wunderground v.1.15,2013-02-21 11:22:00,
2013-02-21 06:28:00,26.7,12.7,30.15,WNW,298,0.0,0.0,55,15.16,,,63.03,Wunderground v.1.15,2013-02-21 11:28:00,
2013-02-21 06:33:00,26.4,12.4,30.16,North,359,0.0,2.0,55,15.16,,,64.38,Wunderground v.1.15,2013-02-21 11:33:00,
2013-02-21 06:38:00,26.3,12.7,30.16,NNE,13,0.0,1.0,56,15.16,,,65.49,Wunderground v.1.15,2013-02-21 11:38:00,
2013-02-21 06:43:00,26.4,12.4,30.16,NNE,13,0.0,1.0,55,15.16,,,66.80,Wunderground v.1.15,2013-02-21 11:43:00,
2013-02-21 06:49:00,26.4,12.4,30.16,NNE,24,0.0,0.0,55,14.40,,,68.07,Wunderground v.1.15,2013-02-21 11:49:00,
2013-02-21 06:54:00,26.7,12.3,30.16,NNE,20,1.0,1.0,54,15.16,,,69.26,Wunderground v.1.15,2013-02-21 11:54:00,
2013-02-21 06:59:00,26.9,12.5,30.16,NNE,20,0.0,1.0,54,15.16,,,70.49,Wunderground v.1.15,2013-02-21 11:59:00,
2013-02-21 07:04:00,26.9,12.9,30.16,NNE,20,0.0,0.0,55,15.16,,,71.72,Wunderground v.1.15,2013-02-21 12:04:00,
2013-02-21 07:09:00,26.7,13.1,30.16,NNE,20,0.0,1.0,56,15.16,,,72.83,Wunderground v.1.15,2013-02-21 12:09:00,
2013-02-21 07:14:00,26.4,12.8,30.16,NNE,20,1.0,1.0,56,15.16,,,74.10,Wunderground v.1.15,2013-02-21 12:14:00,
2013-02-21 07:19:00,26.4,12.4,30.18,NNE,20,0.0,1.0,55,14.40,,,75.33,Wunderground v.1.15,2013-02-21 12:19:00,
2013-02-21 07:26:00,26.4,12.4,30.18,NNE,20,0.0,0.0,55,14.40,,,77.00,Wunderground v.1.15,2013-02-21 12:26:00,
2013-02-21 07:31:00,26.4,12.4,30.18,NNE,20,0.0,0.0,55,14.40,,,78.19,Wunderground v.1.15,2013-02-21 12:31:00,
2013-02-21 07:37:00,26.7,12.7,30.19,NE,35,0.0,0.0,55,15.16,,,79.42,Wunderground v.1.15,2013-02-21 12:37:00,
2013-02-21 07:42:00,27.2,13.1,30.19,NE,35,0.0,0.0,55,15.16,,,80.65,Wunderground v.1.15,2013-02-21 12:42:00,
2013-02-21 07:47:00,27.6,13.5,30.18,NE,35,0.0,0.0,55,14.40,,,81.84,Wunderground v.1.15,2013-02-21 12:47:00,
2013-02-21 07:52:00,27.9,14.2,30.18,NE,35,0.0,0.0,56,15.16,,,83.19,Wunderground v.1.15,2013-02-21 12:52:00,
2013-02-21 07:58:00,28.2,14.5,30.18,NE,35,0.0,0.0,56,15.16,,,84.38,Wunderground v.1.15,2013-02-21 12:58:00,
2013-02-21 08:03:00,29.0,14.4,30.19,NE,35,0.0,0.0,54,14.40,,,85.73,Wunderground v.1.15,2013-02-21 13:03:00,
2013-02-21 08:08:00,29.3,13.4,30.19,NE,35,0.0,0.0,51,15.16,,,86.92,Wunderground v.1.15,2013-02-21 13:08:00,
2013-02-21 08:13:00,29.3,13.4,30.19,NE,35,0.0,0.0,51,15.16,,,88.19,Wunderground v.1.15,2013-02-21 13:13:00,
2013-02-21 08:19:00,29.8,14.7,30.19,NE,35,0.0,0.0,53,15.16,,,89.54,Wunderground v.1.15,2013-02-21 13:19:00,
2013-02-21 08:27:00,30.4,14.9,30.19,NE,35,0.0,0.0,52,15.16,,,91.32,Wunderground v.1.15,2013-02-21 13:27:00,
2013-02-21 08:32:00,30.7,15.6,30.19,NE,35,0.0,0.0,53,14.40,,,92.63,Wunderground v.1.15,2013-02-21 13:32:00,
2013-02-21 08:37:00,31.8,15.3,30.19,NE,35,0.0,0.0,50,15.16,,,93.90,Wunderground v.1.15,2013-02-21 13:37:00,
2013-02-21 08:43:00,32.4,15.3,30.19,NE,42,0.0,0.0,49,14.40,,,95.21,Wunderground v.1.15,2013-02-21 13:43:00,
2013-02-21 08:49:00,32.8,16.6,30.18,NE,42,0.0,0.0,51,14.40,,,96.56,Wunderground v.1.15,2013-02-21 13:49:00,
2013-02-21 08:54:00,33.1,16.5,30.18,NE,42,0.0,0.0,50,14.40,,,97.79,Wunderground v.1.15,2013-02-21 13:54:00,
2013-02-21 08:59:00,33.5,16.4,30.18,NE,42,0.0,0.0,49,15.16,,,98.98,Wunderground v.1.15,2013-02-21 13:59:00,
2013-02-21 09:05:00,33.8,16.2,30.19,NE,42,0.0,0.0,48,14.40,,,99.99,Wunderground v.1.15,2013-02-21 14:05:00,
2013-02-21 09:12:00,33.8,16.2,30.19,NE,45,0.0,0.0,48,14.40,,,99.99,Wunderground v.1.15,2013-02-21 14:12:00,
2013-02-21 09:17:00,34.3,16.1,30.19,NE,45,0.0,0.0,47,14.40,,,99.99,Wunderground v.1.15,2013-02-21 14:17:00,
2013-02-21 09:23:00,35.2,16.0,30.19,NE,45,0.0,0.0,45,15.16,,,99.99,Wunderground v.1.15,2013-02-21 14:23:00,
2013-02-21 09:28:00,35.8,16.0,30.19,NE,51,0.0,0.0,44,15.16,,,99.99,Wunderground v.1.15,2013-02-21 14:28:00,
2013-02-21 09:34:00,36.3,16.4,30.19,NE,51,0.0,0.0,44,14.40,,,99.99,Wunderground v.1.15,2013-02-21 14:34:00,
2013-02-21 09:39:00,36.9,17.0,30.19,NE,51,0.0,0.0,44,14.40,,,99.99,Wunderground v.1.15,2013-02-21 14:39:00,
2013-02-21 09:46:00,37.0,16.5,30.19,East,79,0.0,0.0,43,15.16,,,99.99,Wunderground v.1.15,2013-02-21 14:46:00,
2013-02-21 09:51:00,37.2,17.3,30.19,ENE,73,0.0,0.0,44,15.16,,,99.99,Wunderground v.1.15,2013-02-21 14:51:00,
2013-02-21 09:57:00,37.6,17.1,30.19,ENE,75,0.0,0.0,43,14.40,,,99.99,Wunderground v.1.15,2013-02-21 14:57:00,
2013-02-21 10:02:00,38.5,15.7,30.18,ESE,102,0.0,0.0,39,14.40,,,99.99,Wunderground v.1.15,2013-02-21 15:02:00,
2013-02-21 10:07:00,39.5,16.0,30.18,East,100,0.0,0.0,38,14.40,,,99.99,Wunderground v.1.15,2013-02-21 15:07:00,
2013-02-21 10:12:00,40.5,16.9,30.18,East,99,0.0,0.0,38,15.16,,,99.99,Wunderground v.1.15,2013-02-21 15:12:00,
2013-02-21 10:17:00,41.3,15.7,30.18,East,80,0.0,0.0,35,15.16,,,99.99,Wunderground v.1.15,2013-02-21 15:17:00,
2013-02-21 10:23:00,41.6,15.9,30.18,ENE,78,0.0,0.0,35,14.40,,,99.99,Wunderground v.1.15,2013-02-21 15:23:00,
2013-02-21 10:28:00,41.8,15.4,30.18,East,82,0.0,0.0,34,15.16,,,99.99,Wunderground v.1.15,2013-02-21 15:28:00,
2013-02-21 10:33:00,42.1,16.4,30.17,ESE,102,0.0,0.0,35,15.16,,,99.99,Wunderground v.1.15,2013-02-21 15:33:00,
2013-02-21 10:38:00,43.1,15.9,30.17,East,93,0.0,0.0,33,15.16,,,99.99,Wunderground v.1.15,2013-02-21 15:38:00,
2013-02-21 10:44:00,43.9,16.6,30.17,East,90,0.0,0.0,33,15.16,,,99.99,Wunderground v.1.15,2013-02-21 15:44:00,
2013-02-21 10:49:00,44.5,16.4,30.16,ESE,104,0.0,0.0,32,14.40,,,99.99,Wunderground v.1.15,2013-02-21 15:49:00,
2013-02-21 10:54:00,44.9,15.3,30.16,ESE,103,0.0,0.0,30,14.40,,,99.99,Wunderground v.1.15,2013-02-21 15:54:00,
2013-02-21 10:59:00,45.5,16.6,30.16,East,92,0.0,0.0,31,14.40,,,99.99,Wunderground v.1.15,2013-02-21 15:59:00,
2013-02-21 11:04:00,46.2,14.8,30.15,East,95,0.0,0.0,28,15.16,,,99.99,Wunderground v.1.15,2013-02-21 16:04:00,
2013-02-21 11:09:00,47.0,14.7,30.15,East,95,0.0,0.0,27,15.16,,,99.99,Wunderground v.1.15,2013-02-21 16:09:00,
2013-02-21 11:16:00,47.9,15.5,30.15,SSE,148,0.0,0.0,27,14.40,,,99.99,Wunderground v.1.15,2013-02-21 16:16:00,
2013-02-21 11:22:00,48.5,13.3,30.15,SSW,199,0.0,0.0,24,15.16,,,99.99,Wunderground v.1.15,2013-02-21 16:22:00,
2013-02-21 11:27:00,49.1,13.8,30.15,SSW,202,0.0,0.0,24,15.16,,,99.99,Wunderground v.1.15,2013-02-21 16:27:00,
2013-02-21 11:32:00,49.4,12.1,30.13,South,191,0.0,0.0,22,14.40,,,99.99,Wunderground v.1.15,2013-02-21 16:32:00,
2013-02-21 11:37:00,49.8,7.9,30.13,South,188,0.0,0.0,18,15.16,,,99.99,Wunderground v.1.15,2013-02-21 16:37:00,
2013-02-21 11:42:00,50.4,11.9,30.13,SSW,199,0.0,0.0,21,14.40,,,99.99,Wunderground v.1.15,2013-02-21 16:42:00,
2013-02-21 11:47:00,51.1,6.4,30.12,SSE,158,0.0,0.0,16,14.40,,,99.99,Wunderground v.1.15,2013-02-21 16:47:00,
2013-02-21 11:52:00,51.9,8.4,30.12,SSE,157,0.0,0.0,17,15.16,,,99.99,Wunderground v.1.15,2013-02-21 16:52:00,
2013-02-21 11:58:00,52.6,8.9,30.12,SSE,154,0.0,0.0,17,15.16,,,99.99,Wunderground v.1.15,2013-02-21 16:58:00,
2013-02-21 12:03:00,53.3,10.8,30.10,South,179,0.0,0.0,18,14.40,,,99.99,Wunderground v.1.15,2013-02-21 17:03:00,
2013-02-21 12:08:00,53.8,9.9,30.10,SE,124,0.0,0.0,17,15.16,,,99.99,Wunderground v.1.15,2013-02-21 17:08:00,
2013-02-21 12:13:00,54.4,12.9,30.10,South,172,0.0,1.0,19,15.16,,,99.99,Wunderground v.1.15,2013-02-21 17:13:00,
2013-02-21 12:18:00,54.7,14.4,30.10,East,80,0.0,0.0,20,15.16,,,99.99,Wunderground v.1.15,2013-02-21 17:18:00,
2013-02-21 12:24:00,55.7,15.2,30.10,WSW,244,0.0,0.0,20,15.16,,,99.99,Wunderground v.1.15,2013-02-21 17:24:00,
2013-02-21 12:29:00,56.6,13.5,30.10,South,188,0.0,0.0,18,15.16,,,99.99,Wunderground v.1.15,2013-02-21 17:29:00,
2013-02-21 12:35:00,56.9,16.2,30.08,East,95,0.0,0.0,20,15.16,,,99.99,Wunderground v.1.15,2013-02-21 17:35:00,
2013-02-21 12:40:00,56.3,15.7,30.08,SSW,195,1.0,1.0,20,15.16,,,99.99,Wunderground v.1.15,2013-02-21 17:40:00,
2013-02-21 12:45:00,56.6,15.9,30.08,South,179,0.0,1.0,20,14.40,,,99.99,Wunderground v.1.15,2013-02-21 17:45:00,
2013-02-21 12:51:00,56.9,16.2,30.07,SSE,165,0.0,6.0,20,14.40,,,99.99,Wunderground v.1.15,2013-02-21 17:51:00,
2013-02-21 12:56:00,56.7,14.8,30.07,South,179,5.0,5.0,19,14.40,,,99.99,Wunderground v.1.15,2013-02-21 17:56:00,
2013-02-21 13:01:00,56.2,14.4,30.07,South,171,7.0,7.0,19,14.40,,,99.99,Wunderground v.1.15,2013-02-21 18:01:00,
2013-02-21 13:06:00,55.9,15.3,30.07,South,171,2.0,7.0,20,14.40,,,99.99,Wunderground v.1.15,2013-02-21 18:06:00,
2013-02-21 13:12:00,55.9,16.5,30.07,SSE,160,0.0,7.0,21,14.40,,,99.99,Wunderground v.1.15,2013-02-21 18:12:00,
2013-02-21 13:17:00,56.6,17.1,30.07,SSE,167,0.0,1.0,21,15.16,,,99.99,Wunderground v.1.15,2013-02-21 18:17:00,
2013-02-21 13:22:00,57.8,18.1,30.06,SSE,152,1.0,2.0,21,15.16,,,99.99,Wunderground v.1.15,2013-02-21 18:22:00,
2013-02-21 13:27:00,58.7,18.8,30.06,SSW,206,0.0,1.0,21,15.16,,,99.99,Wunderground v.1.15,2013-02-21 18:27:00,
2013-02-21 13:33:00,59.5,18.3,30.04,South,188,0.0,6.0,20,15.16,,,99.99,Wunderground v.1.15,2013-02-21 18:33:00,
2013-02-21 13:38:00,58.4,16.2,30.04,SSE,168,0.0,5.0,19,15.16,,,99.99,Wunderground v.1.15,2013-02-21 18:38:00,
2013-02-21 13:47:00,58.6,17.6,30.04,East,89,0.0,0.0,20,15.16,,,99.99,Wunderground v.1.15,2013-02-21 18:47:00,
2013-02-21 13:52:00,58.4,17.4,30.03,South,176,1.0,2.0,20,15.16,,,99.99,Wunderground v.1.15,2013-02-21 18:52:00,
2013-02-21 13:57:00,58.3,17.3,30.03,South,179,0.0,7.0,20,15.16,,,99.99,Wunderground v.1.15,2013-02-21 18:57:00,
2013-02-21 14:02:00,58.4,18.6,30.03,SSE,151,0.0,7.0,21,15.16,,,99.99,Wunderground v.1.15,2013-02-21 19:02:00,
2013-02-21 14:07:00,58.7,18.8,30.04,SE,140,0.0,2.0,21,14.40,,,99.99,Wunderground v.1.15,2013-02-21 19:07:00,
2013-02-21 14:12:00,58.4,18.6,30.04,SE,141,2.0,6.0,21,15.16,,,99.99,Wunderground v.1.15,2013-02-21 19:12:00,
2013-02-21 14:17:00,58.6,18.7,30.03,SW,217,2.0,2.0,21,14.40,,,99.99,Wunderground v.1.15,2013-02-21 19:17:00,
2013-02-21 14:22:00,58.9,19.0,30.03,SSE,164,2.0,8.0,21,15.16,,,99.99,Wunderground v.1.15,2013-02-21 19:22:00,
2013-02-21 14:28:00,58.4,18.6,30.03,SSE,161,6.0,10.0,21,15.16,,,99.99,Wunderground v.1.15,2013-02-21 19:28:00,
2013-02-21 14:33:00,58.4,18.6,30.05,South,185,6.0,12.0,21,15.16,,,99.99,Wunderground v.1.15,2013-02-21 19:33:00,
2013-02-21 14:38:00,57.8,18.1,30.05,South,176,11.0,11.0,21,15.16,,,99.99,Wunderground v.1.15,2013-02-21 19:38:00,
2013-02-21 14:43:00,57.0,17.4,30.05,SSE,157,1.0,11.0,21,15.16,,,99.99,Wunderground v.1.15,2013-02-21 19:43:00,
2013-02-21 14:48:00,56.9,18.4,30.05,SSE,160,5.0,5.0,22,15.16,,,99.99,Wunderground v.1.15,2013-02-21 19:48:00,
2013-02-21 14:54:00,56.9,17.3,30.05,SSW,205,6.0,6.0,21,14.40,,,99.99,Wunderground v.1.15,2013-02-21 19:54:00,
2013-02-21 14:59:00,56.5,17.0,30.05,SSE,155,6.0,7.0,21,14.40,,,99.99,Wunderground v.1.15,2013-02-21 19:59:00,
2013-02-21 15:05:00,56.3,16.8,30.05,SW,230,0.0,2.0,21,15.16,,,99.99,Wunderground v.1.15,2013-02-21 20:05:00,
2013-02-21 15:12:00,56.3,17.9,30.05,SSE,152,0.0,2.0,22,15.16,,,99.99,Wunderground v.1.15,2013-02-21 20:12:00,
2013-02-21 15:17:00,56.0,17.6,30.05,SSE,168,0.0,3.0,22,14.40,,,99.99,Wunderground v.1.15,2013-02-21 20:17:00,
2013-02-21 15:22:00,55.7,18.4,30.05,SSW,202,0.0,7.0,23,14.40,,,99.99,Wunderground v.1.15,2013-02-21 20:22:00,
2013-02-21 15:27:00,55.7,16.3,30.05,South,175,4.0,7.0,21,15.16,,,99.99,Wunderground v.1.15,2013-02-21 20:27:00,
2013-02-21 15:32:00,56.0,18.7,30.04,SW,216,4.0,7.0,23,15.16,,,99.99,Wunderground v.1.15,2013-02-21 20:32:00,
2013-02-21 15:37:00,57.3,18.7,30.04,SSE,167,3.0,9.0,22,15.16,,,99.99,Wunderground v.1.15,2013-02-21 20:37:00,
2013-02-21 15:43:00,56.9,18.4,30.04,SSE,162,0.0,9.0,22,15.16,,,99.99,Wunderground v.1.15,2013-02-21 20:43:00,
2013-02-21 15:48:00,56.3,18.9,30.04,SW,222,0.0,5.0,23,15.16,,,99.99,Wunderground v.1.15,2013-02-21 20:48:00,
2013-02-21 15:56:00,56.0,18.7,30.04,South,174,0.0,1.0,23,15.16,,,99.99,Wunderground v.1.15,2013-02-21 20:56:00,
2013-02-21 16:01:00,55.7,18.4,30.04,South,184,0.0,1.0,23,14.40,,,99.99,Wunderground v.1.15,2013-02-21 21:01:00,
2013-02-21 16:06:00,55.3,18.1,30.03,SSW,200,0.0,3.0,23,14.40,,,99.99,Wunderground v.1.15,2013-02-21 21:06:00,
2013-02-21 16:11:00,54.8,17.7,30.03,WSW,243,2.0,8.0,23,15.16,,,99.99,Wunderground v.1.15,2013-02-21 21:11:00,
2013-02-21 16:16:00,54.7,18.6,30.03,SW,220,2.0,3.0,24,14.40,,,99.99,Wunderground v.1.15,2013-02-21 21:16:00,
2013-02-21 16:22:00,54.7,18.6,30.04,SW,220,0.0,4.0,24,15.16,,,99.99,Wunderground v.1.15,2013-02-21 21:22:00,
2013-02-21 16:27:00,54.2,18.1,30.04,SSW,192,3.0,6.0,24,15.16,,,99.99,Wunderground v.1.15,2013-02-21 21:27:00,
2013-02-21 16:32:00,53.9,18.8,30.04,SSW,209,8.0,13.0,25,15.16,,,99.99,Wunderground v.1.15,2013-02-21 21:32:00,
2013-02-21 16:37:00,53.6,18.6,30.05,South,176,0.0,5.0,25,14.40,,,99.99,Wunderground v.1.15,2013-02-21 21:37:00,
2013-02-21 16:42:00,53.2,18.2,30.05,SSW,202,0.0,7.0,25,14.40,,,99.99,Wunderground v.1.15,2013-02-21 21:42:00,
2013-02-21 16:47:00,53.1,19.1,30.05,South,179,0.0,2.0,26,15.16,,,99.99,Wunderground v.1.15,2013-02-21 21:47:00,
2013-02-21 16:52:00,52.8,18.8,30.05,SW,233,2.0,6.0,26,15.16,,,99.99,Wunderground v.1.15,2013-02-21 21:52:00,
2013-02-21 16:58:00,52.8,18.8,30.05,SSE,165,0.0,3.0,26,14.40,,,99.99,Wunderground v.1.15,2013-02-21 21:58:00,
2013-02-21 17:03:00,52.6,19.5,30.04,SSW,212,0.0,3.0,27,14.40,,,99.99,Wunderground v.1.15,2013-02-21 22:03:00,
2013-02-21 17:08:00,52.5,19.4,30.04,SSW,212,0.0,1.0,27,15.16,,,99.99,Wunderground v.1.15,2013-02-21 22:08:00,
2013-02-21 17:13:00,52.3,20.1,30.04,SSW,210,0.0,1.0,28,15.16,,,99.99,Wunderground v.1.15,2013-02-21 22:13:00,
2013-02-21 17:18:00,52.2,19.2,30.03,SSW,212,0.0,3.0,27,15.16,,,99.99,Wunderground v.1.15,2013-02-21 22:18:00,
2013-02-21 17:24:00,51.9,18.9,30.03,SSW,212,0.0,0.0,27,14.40,,,99.99,Wunderground v.1.15,2013-02-21 22:24:00,
2013-02-21 17:29:00,51.6,19.5,30.03,South,191,0.0,1.0,28,14.40,,,99.99,Wunderground v.1.15,2013-02-21 22:29:00,
2013-02-21 17:34:00,51.3,19.3,30.04,SW,217,0.0,6.0,28,15.16,,,99.99,Wunderground v.1.15,2013-02-21 22:34:00,
2013-02-21 17:39:00,51.1,19.1,30.04,SW,222,0.0,7.0,28,15.16,,,99.99,Wunderground v.1.15,2013-02-21 22:39:00,
2013-02-21 17:44:00,51.0,19.0,30.04,SW,215,0.0,1.0,28,15.16,,,99.99,Wunderground v.1.15,2013-02-21 22:44:00,
2013-02-21 17:49:00,50.8,19.6,30.04,SW,216,4.0,4.0,29,15.16,,,99.99,Wunderground v.1.15,2013-02-21 22:49:00,
2013-02-21 17:54:00,50.5,17.7,30.04,SW,227,7.0,7.0,27,14.40,,,99.99,Wunderground v.1.15,2013-02-21 22:54:00,
2013-02-21 18:00:00,50.4,18.5,30.04,SSW,196,7.0,7.0,28,15.16,,,99.99,Wunderground v.1.15,2013-02-21 23:00:00,
2013-02-21 18:05:00,50.2,17.5,30.04,SSW,208,8.0,12.0,27,15.16,,,99.99,Wunderground v.1.15,2013-02-21 23:05:00,
2013-02-21 18:12:00,49.8,18.0,30.04,SW,219,0.0,13.0,28,15.16,,,99.99,Wunderground v.1.15,2013-02-21 23:12:00,
2013-02-21 18:17:00,49.6,17.8,30.05,SSW,202,1.0,5.0,28,14.40,,,99.99,Wunderground v.1.15,2013-02-21 23:17:00,
2013-02-21 18:22:00,49.5,16.9,30.05,South,179,0.0,5.0,27,14.40,,,99.99,Wunderground v.1.15,2013-02-21 23:22:00,
2013-02-21 18:27:00,49.2,17.4,30.05,South,188,0.0,5.0,28,15.16,,,99.99,Wunderground v.1.15,2013-02-21 23:27:00,
2013-02-21 18:32:00,48.9,18.8,30.06,WSW,257,2.0,7.0,30,15.16,,,99.99,Wunderground v.1.15,2013-02-21 23:32:00,
2013-02-21 18:38:00,48.8,18.7,30.06,SW,233,12.0,12.0,30,15.16,,,99.99,Wunderground v.1.15,2013-02-21 23:38:00,
2013-02-21 18:43:00,48.6,17.7,30.06,WSW,244,1.0,12.0,29,15.16,,,99.99,Wunderground v.1.15,2013-02-21 23:43:00,
2013-02-21 18:48:00,48.5,17.6,30.06,SSE,167,1.0,10.0,29,15.16,,,99.99,Wunderground v.1.15,2013-02-21 23:48:00,
2013-02-21 18:54:00,48.2,18.2,30.06,South,176,1.0,10.0,30,14.40,,,99.99,Wunderground v.1.15,2013-02-21 23:54:00,
2013-02-21 18:59:00,48.0,18.0,30.06,ESE,117,0.0,2.0,30,14.40,,,99.99,Wunderground v.1.15,2013-02-21 23:59:00,
2013-02-21 19:07:00,47.9,17.9,30.06,SW,234,5.0,5.0,30,15.16,,,99.99,Wunderground v.1.15,2013-02-22 00:07:00,
2013-02-21 19:12:00,47.7,18.5,30.06,ESE,113,0.0,6.0,31,14.40,,,99.99,Wunderground v.1.15,2013-02-22 00:12:00,
2013-02-21 19:17:00,47.7,17.7,30.05,SSW,206,0.0,1.0,30,14.40,,,99.99,Wunderground v.1.15,2013-02-22 00:17:00,
2013-02-21 19:22:00,47.6,18.4,30.05,SSW,202,0.0,1.0,31,15.16,,,99.99,Wunderground v.1.15,2013-02-22 00:22:00,
2013-02-21 19:29:00,47.1,21.5,30.05,West,260,2.0,4.0,36,14.40,,,99.99,Wunderground v.1.15,2013-02-22 00:29:00,
2013-02-21 19:34:00,46.5,25.2,30.08,West,281,2.0,5.0,43,14.40,,,99.99,Wunderground v.1.15,2013-02-22 00:34:00,
2013-02-21 19:39:00,46.4,20.9,30.08,SSW,212,5.0,8.0,36,14.40,,,99.99,Wunderground v.1.15,2013-02-22 00:39:00,
2013-02-21 19:44:00,46.5,18.2,30.08,SSW,210,0.0,8.0,32,15.16,,,99.99,Wunderground v.1.15,2013-02-22 00:44:00,
2013-02-21 19:49:00,46.7,20.5,30.09,WSW,256,1.0,6.0,35,15.16,,,99.99,Wunderground v.1.15,2013-02-22 00:49:00,
2013-02-21 19:54:00,46.4,21.5,30.09,WNW,292,7.0,11.0,37,15.16,,,99.99,Wunderground v.1.15,2013-02-22 00:54:00,
2013-02-21 20:00:00,46.1,21.2,30.09,WSW,246,0.0,9.0,37,15.16,,,99.99,Wunderground v.1.15,2013-02-22 01:00:00,
2013-02-21 20:05:00,46.1,19.2,30.14,WSW,251,0.0,9.0,34,15.16,,,99.99,Wunderground v.1.15,2013-02-22 01:05:00,
2013-02-21 20:11:00,45.8,22.8,30.14,WSW,254,6.0,9.0,40,15.16,,,99.99,Wunderground v.1.15,2013-02-22 01:11:00,
2013-02-21 20:17:00,45.2,21.7,30.14,SW,217,0.0,5.0,39,15.16,,,99.99,Wunderground v.1.15,2013-02-22 01:17:00,
2013-02-21 20:22:00,44.6,26.1,30.13,SW,236,2.0,6.0,48,15.16,,,99.99,Wunderground v.1.15,2013-02-22 01:22:00,
2013-02-21 20:27:00,43.9,25.5,30.13,SW,233,0.0,4.0,48,15.16,,,99.99,Wunderground v.1.15,2013-02-22 01:27:00,
2013-02-21 20:32:00,43.5,26.1,30.13,SSW,209,0.0,4.0,50,15.16,,,99.99,Wunderground v.1.15,2013-02-22 01:32:00,
2013-02-21 20:37:00,43.1,26.7,30.13,SSW,209,0.0,1.0,52,15.16,,,99.99,Wunderground v.1.15,2013-02-22 01:37:00,
2013-02-21 20:43:00,42.6,28.4,30.13,West,275,4.0,4.0,57,14.40,,,99.99,Wunderground v.1.15,2013-02-22 01:43:00,
2013-02-21 20:49:00,42.2,26.3,30.12,West,278,0.0,5.0,53,14.40,,,99.99,Wunderground v.1.15,2013-02-22 01:49:00,
2013-02-21 20:56:00,41.9,29.4,30.12,WNW,284,5.0,5.0,61,15.16,,,99.99,Wunderground v.1.15,2013-02-22 01:56:00,
2013-02-21 21:01:00,41.3,29.3,30.12,NW,315,3.0,7.0,62,14.40,,,99.99,Wunderground v.1.15,2013-02-22 02:01:00,
2013-02-21 21:06:00,41.3,28.9,30.12,WSW,237,4.0,4.0,61,14.40,,,99.99,Wunderground v.1.15,2013-02-22 02:06:00,
2013-02-21 21:11:00,40.3,30.6,30.12,West,277,8.0,8.0,68,14.40,,,99.99,Wunderground v.1.15,2013-02-22 02:11:00,
2013-02-21 21:16:00,39.3,34.3,30.12,West,268,2.0,6.0,82,15.16,,,99.99,Wunderground v.1.15,2013-02-22 02:16:00,
2013-02-21 21:21:00,39.5,32.6,30.13,SW,222,0.0,7.0,76,15.16,,,99.99,Wunderground v.1.15,2013-02-22 02:21:00,
2013-02-21 21:27:00,39.6,31.3,30.13,SW,230,6.0,6.0,72,15.16,,,99.99,Wunderground v.1.15,2013-02-22 02:27:00,
2013-02-21 21:32:00,39.9,31.6,30.13,SSW,193,0.0,6.0,72,15.16,,,99.99,Wunderground v.1.15,2013-02-22 02:32:00,
2013-02-21 21:37:00,39.6,33.0,30.11,WSW,257,6.0,6.0,77,15.16,,,99.99,Wunderground v.1.15,2013-02-22 02:37:00,
2013-02-21 21:42:00,38.9,34.8,30.11,West,270,5.0,8.0,85,14.40,,,99.99,Wunderground v.1.15,2013-02-22 02:42:00,
2013-02-21 21:48:00,39.1,32.8,30.10,SSW,200,6.0,6.0,78,15.16,,,99.99,Wunderground v.1.15,2013-02-22 02:48:00,
2013-02-21 21:53:00,39.2,33.9,30.10,West,271,0.0,6.0,81,14.40,,,99.99,Wunderground v.1.15,2013-02-22 02:53:00,
2013-02-21 21:58:00,38.8,35.3,30.10,West,281,6.0,7.0,87,14.40,,,99.99,Wunderground v.1.15,2013-02-22 02:58:00,
2013-02-21 22:03:00,38.3,35.9,30.14,West,272,4.0,8.0,91,15.16,,,99.99,Wunderground v.1.15,2013-02-22 03:03:00,
2013-02-21 22:08:00,38.3,34.2,30.14,WSW,241,10.0,10.0,85,14.40,,,99.99,Wunderground v.1.15,2013-02-22 03:08:00,
2013-02-21 22:13:00,38.5,33.8,30.14,SW,232,0.0,10.0,83,14.40,,,99.99,Wunderground v.1.15,2013-02-22 03:13:00,
2013-02-21 22:18:00,38.5,33.8,30.12,West,280,0.0,2.0,83,15.16,,,99.99,Wunderground v.1.15,2013-02-22 03:18:00,
2013-02-21 22:23:00,38.5,34.1,30.12,West,277,0.0,3.0,84,15.16,,,99.99,Wunderground v.1.15,2013-02-22 03:23:00,
2013-02-21 22:28:00,38.5,33.8,30.12,NW,304,0.0,1.0,83,15.16,,,99.99,Wunderground v.1.15,2013-02-22 03:28:00,
2013-02-21 22:33:00,38.2,35.2,30.13,West,280,3.0,6.0,89,15.16,,,99.99,Wunderground v.1.15,2013-02-22 03:33:00,
2013-02-21 22:39:00,38.0,36.2,30.13,West,272,0.0,6.0,93,14.40,,,99.99,Wunderground v.1.15,2013-02-22 03:39:00,
2013-02-21 22:46:00,37.8,35.7,30.13,NNW,332,0.0,1.0,92,15.16,,,99.99,Wunderground v.1.15,2013-02-22 03:46:00,
2013-02-21 22:51:00,37.8,35.1,30.12,West,272,0.0,1.0,90,15.16,,,99.99,Wunderground v.1.15,2013-02-22 03:51:00,
2013-02-21 22:56:00,37.9,34.7,30.12,West,272,0.0,0.0,88,15.16,,,99.99,Wunderground v.1.15,2013-02-22 03:56:00,
2013-02-21 23:02:00,38.0,34.8,30.12,West,277,0.0,0.0,88,14.40,,,99.99,Wunderground v.1.15,2013-02-22 04:02:00,
2013-02-21 23:07:00,38.0,35.0,30.12,North,0,0.0,0.0,89,14.40,,,99.99,Wunderground v.1.15,2013-02-22 04:07:00,
2013-02-21 23:12:00,38.2,35.2,30.12,NNW,329,0.0,0.0,89,15.16,,,99.99,Wunderground v.1.15,2013-02-22 04:12:00,
2013-02-21 23:17:00,38.3,35.3,30.11,North,4,0.0,1.0,89,15.16,,,99.99,Wunderground v.1.15,2013-02-22 04:17:00,
2013-02-21 23:22:00,38.3,35.6,30.11,West,260,1.0,1.0,90,15.16,,,99.99,Wunderground v.1.15,2013-02-22 04:22:00,
2013-02-21 23:27:00,38.2,36.1,30.11,West,261,0.0,0.0,92,15.16,,,99.99,Wunderground v.1.15,2013-02-22 04:27:00,
2013-02-21 23:32:00,38.2,36.4,30.11,West,261,0.0,0.0,93,15.16,,,99.99,Wunderground v.1.15,2013-02-22 04:32:00,
2013-02-21 23:37:00,38.2,36.4,30.11,West,261,0.0,0.0,93,15.16,,,99.99,Wunderground v.1.15,2013-02-22 04:37:00,
2013-02-21 23:43:00,38.0,36.2,30.11,West,265,0.0,0.0,93,15.16,,,99.99,Wunderground v.1.15,2013-02-22 04:43:00,
2013-02-21 23:48:00,38.0,36.4,30.12,NNW,343,0.0,0.0,94,15.16,,,99.99,Wunderground v.1.15,2013-02-22 04:48:00,
2013-02-21 23:53:00,38.0,36.4,30.12,West,268,0.0,0.0,94,15.16,,,99.99,Wunderground v.1.15,2013-02-22 04:53:00,
2013-02-21 23:58:00,38.0,36.4,30.12,West,268,0.0,0.0,94,15.16,,,99.99,Wunderground v.1.15,2013-02-22 04:58:00,